createdAt,value
2023-05-22T00:00:14.466Z,102038.00
2023-05-22T00:02:44.371Z,102041.00
2023-05-22T00:05:18.471Z,102035.00
2023-05-22T00:07:47.361Z,102027.00
2023-05-22T00:10:16.176Z,102032.00
2023-05-22T00:12:44.969Z,102035.00
2023-05-22T00:15:13.856Z,102029.00
2023-05-22T00:17:44.571Z,102036.00
2023-05-22T00:20:15.501Z,102043.00
2023-05-22T00:22:45.076Z,102030.00
2023-05-22T00:25:13.838Z,102038.00
2023-05-22T00:27:42.544Z,102035.00
2023-05-22T00:30:12.725Z,102039.00
2023-05-22T00:32:41.789Z,102034.00
2023-05-22T00:35:11.947Z,102035.00
2023-05-22T00:37:42.051Z,102025.00
2023-05-22T00:40:12.534Z,102030.00
2023-05-22T00:42:41.298Z,102027.00
2023-05-22T00:45:12.972Z,102026.00
2023-05-22T00:47:41.927Z,102032.00
2023-05-22T00:50:13.648Z,102017.00
2023-05-22T00:52:47.667Z,102019.00
2023-05-22T00:55:17.640Z,102011.00
2023-05-22T00:57:47.542Z,102014.00
2023-05-22T01:00:18.071Z,102015.00
2023-05-22T01:02:48.073Z,102011.00
2023-05-22T01:05:18.336Z,102004.00
2023-05-22T01:07:48.880Z,102009.00
2023-05-22T01:10:17.715Z,101996.00
2023-05-22T01:13:04.434Z,102001.00
2023-05-22T01:15:44.500Z,101997.00
2023-05-22T01:18:26.509Z,101995.00
2023-05-22T01:21:04.474Z,102000.00
2023-05-22T01:24:44.279Z,101993.00
2023-05-22T01:28:02.801Z,101990.00
2023-05-22T01:30:55.037Z,101992.00
2023-05-22T01:33:26.830Z,101995.00
2023-05-22T01:36:00.926Z,101995.00
2023-05-22T01:38:31.190Z,101993.00
2023-05-22T01:41:02.156Z,102002.00
2023-05-22T01:43:31.295Z,101996.00
2023-05-22T01:46:02.318Z,101988.00
2023-05-22T01:48:31.076Z,101991.00
2023-05-22T01:51:08.938Z,101994.00
2023-05-22T01:53:47.395Z,101987.00
2023-05-22T01:56:30.686Z,101986.00
2023-05-22T01:59:09.838Z,101984.00
2023-05-22T02:01:41.319Z,101980.00
2023-05-22T02:04:12.022Z,101977.00
2023-05-22T02:06:43.002Z,101988.00
2023-05-22T02:09:12.446Z,101988.00
2023-05-22T02:11:43.685Z,101990.00
2023-05-22T02:14:13.708Z,101989.00
2023-05-22T02:16:47.954Z,101986.00
2023-05-22T02:19:17.466Z,101993.00
2023-05-22T02:22:09.970Z,101995.00
2023-05-22T02:24:39.380Z,101981.00
2023-05-22T02:27:08.171Z,101977.00
2023-05-22T02:29:37.011Z,101975.00
2023-05-22T02:32:08.567Z,101984.00
2023-05-22T02:34:38.025Z,101986.00
2023-05-22T02:37:07.387Z,101991.00
2023-05-22T02:39:36.039Z,101990.00
2023-05-22T02:42:06.820Z,102001.00
2023-05-22T02:44:35.742Z,102006.00
2023-05-22T02:47:04.616Z,101999.00
2023-05-22T02:49:34.678Z,101999.00
2023-05-22T02:52:03.523Z,102012.00
2023-05-22T02:54:32.403Z,102010.00
2023-05-22T02:57:01.247Z,102012.00
2023-05-22T02:59:29.962Z,102012.00
2023-05-22T03:01:58.811Z,102015.00
2023-05-22T03:04:27.650Z,102011.00
2023-05-22T03:06:57.769Z,102008.00
2023-05-22T03:09:27.439Z,102010.00
2023-05-22T03:11:56.306Z,102007.00
2023-05-22T03:14:25.032Z,102007.00
2023-05-22T03:16:54.779Z,102011.00
2023-05-22T03:19:24.941Z,102002.00
2023-05-22T03:21:54.487Z,102005.00
2023-05-22T03:24:26.202Z,102005.00
2023-05-22T03:26:54.994Z,102005.00
2023-05-22T03:29:33.452Z,102001.00
2023-05-22T03:32:03.574Z,102003.00
2023-05-22T03:34:33.007Z,102008.00
2023-05-22T03:37:02.982Z,102016.00
2023-05-22T03:39:33.296Z,102011.00
2023-05-22T03:42:18.843Z,102005.00
2023-05-22T03:51:35.136Z,101986.00
2023-05-22T03:54:04.139Z,101982.00
2023-05-22T03:56:34.225Z,101989.00
2023-05-22T03:59:04.518Z,101993.00
2023-05-22T04:01:33.830Z,101980.00
2023-05-22T04:04:02.507Z,101982.00
2023-05-22T04:06:33.129Z,101979.00
2023-05-22T04:09:02.694Z,101985.00
2023-05-22T04:11:33.958Z,101986.00
2023-05-22T04:14:05.434Z,101991.00
2023-05-22T04:16:34.844Z,101982.00
2023-05-22T04:19:05.908Z,101989.00
2023-05-22T04:21:35.725Z,101971.00
2023-05-22T04:24:07.428Z,101970.00
2023-05-22T04:26:40.434Z,101964.00
2023-05-22T04:29:10.686Z,101959.00
2023-05-22T04:31:42.230Z,101967.00
2023-05-22T04:34:13.323Z,101959.00
2023-05-22T04:36:45.248Z,101967.00
2023-05-22T04:39:17.855Z,101962.00
2023-05-22T04:41:48.138Z,101959.00
2023-05-22T04:44:18.044Z,101955.00
2023-05-22T04:46:50.476Z,101953.00
2023-05-22T04:49:26.991Z,101949.00
2023-05-22T04:51:59.267Z,101954.00
2023-05-22T04:54:31.610Z,101945.00
2023-05-22T04:57:04.696Z,101948.00
2023-05-22T04:59:39.328Z,101945.00
2023-05-22T05:02:15.832Z,101945.00
2023-05-22T05:04:47.692Z,101932.00
2023-05-22T05:07:21.725Z,101928.00
2023-05-22T05:09:52.776Z,101932.00
2023-05-22T05:12:28.668Z,101928.00
2023-05-22T05:15:09.865Z,101925.00
2023-05-22T05:17:44.967Z,101934.00
2023-05-22T05:20:20.408Z,101929.00
2023-05-22T05:22:56.232Z,101933.00
2023-05-22T05:25:31.659Z,101931.00
2023-05-22T05:28:11.712Z,101928.00
2023-05-22T05:30:46.244Z,101928.00
2023-05-22T05:33:33.948Z,101929.00
2023-05-22T05:36:24.956Z,101921.00
2023-05-22T05:39:02.225Z,101925.00
2023-05-22T05:41:35.390Z,101911.00
2023-05-22T05:44:11.439Z,101917.00
2023-05-22T05:46:47.058Z,101923.00
2023-05-22T05:49:25.185Z,101918.00
2023-05-22T05:51:56.787Z,101915.00
2023-05-22T05:54:35.710Z,101916.00
2023-05-22T05:57:14.862Z,101915.00
2023-05-22T05:59:52.520Z,101909.00
2023-05-22T06:02:48.841Z,101912.00
2023-05-22T06:05:42.747Z,101914.00
2023-05-22T06:08:27.280Z,101908.00
2023-05-22T06:10:58.622Z,101913.00
2023-05-22T06:13:53.550Z,101913.00
2023-05-22T06:16:26.086Z,101912.00
2023-05-22T06:18:57.523Z,101921.00
2023-05-22T06:21:27.871Z,101912.00
2023-05-22T06:24:00.738Z,101920.00
2023-05-22T06:26:32.545Z,101916.00
2023-05-22T06:29:02.335Z,101913.00
2023-05-22T06:31:45.244Z,101917.00
2023-05-22T06:34:16.640Z,101908.00
2023-05-22T06:36:50.630Z,101909.00
2023-05-22T06:39:25.754Z,101909.00
2023-05-22T06:42:14.024Z,101914.00
2023-05-22T06:45:06.398Z,101912.00
2023-05-22T06:47:47.054Z,101915.00
2023-05-22T06:50:19.554Z,101903.00
2023-05-22T06:52:55.341Z,101901.00
2023-05-22T06:55:30.127Z,101906.00
2023-05-22T06:58:15.821Z,101898.00
2023-05-22T07:00:48.895Z,101892.00
2023-05-22T07:03:27.890Z,101898.00
2023-05-22T07:06:25.766Z,101897.00
2023-05-22T07:08:55.650Z,101897.00
2023-05-22T07:11:25.388Z,101888.00
2023-05-22T07:13:56.647Z,101891.00
2023-05-22T07:16:30.747Z,101890.00
2023-05-22T07:19:12.778Z,101889.00
2023-05-22T07:21:46.979Z,101885.00
2023-05-22T07:24:21.570Z,101877.00
2023-05-22T07:26:52.478Z,101876.00
2023-05-22T07:29:24.376Z,101881.00
2023-05-22T07:31:59.836Z,101875.00
2023-05-22T07:34:34.459Z,101862.00
2023-05-22T07:37:11.561Z,101873.00
2023-05-22T07:39:48.842Z,101865.00
2023-05-22T07:42:39.962Z,101854.00
2023-05-22T07:45:20.681Z,101863.00
2023-05-22T07:51:36.079Z,101840.00
2023-05-22T07:54:50.258Z,101842.00
2023-05-22T07:57:53.203Z,101837.00
2023-05-22T08:00:52.618Z,101837.00
2023-05-22T08:03:39.033Z,101838.00
2023-05-22T08:06:21.931Z,101840.00
2023-05-22T08:08:55.813Z,101836.00
2023-05-22T08:11:46.920Z,101838.00
2023-05-22T08:14:35.742Z,101834.00
2023-05-22T08:17:09.924Z,101833.00
2023-05-22T08:19:46.460Z,101834.00
2023-05-22T08:22:34.451Z,101836.00
2023-05-22T08:25:10.644Z,101837.00
2023-05-22T08:27:43.843Z,101839.00
2023-05-22T08:30:29.290Z,101836.00
2023-05-22T08:32:59.097Z,101833.00
2023-05-22T08:35:27.956Z,101833.00
2023-05-22T08:37:58.320Z,101834.00
2023-05-22T08:40:38.346Z,101833.00
2023-05-22T08:43:11.065Z,101832.00
2023-05-22T08:45:42.662Z,101831.00
2023-05-22T08:48:22.317Z,101825.00
2023-05-22T08:51:02.564Z,101827.00
2023-05-22T08:53:37.501Z,101823.00
2023-05-22T08:56:09.056Z,101832.00
2023-05-22T08:58:39.942Z,101826.00
2023-05-22T09:01:15.289Z,101824.00
2023-05-22T09:03:49.911Z,101825.00
2023-05-22T09:06:21.401Z,101834.00
2023-05-22T09:08:53.417Z,101834.00
2023-05-22T09:11:23.701Z,101828.00
2023-05-22T09:13:52.669Z,101823.00
2023-05-22T09:16:21.664Z,101825.00
2023-05-22T09:18:50.882Z,101826.00
2023-05-22T09:21:29.654Z,101822.00
2023-05-22T09:24:03.628Z,101823.00
2023-05-22T09:26:33.048Z,101830.00
2023-05-22T09:29:03.082Z,101821.00
2023-05-22T09:31:32.184Z,101820.00
2023-05-22T09:34:01.299Z,101819.00
2023-05-22T09:36:33.667Z,101811.00
2023-05-22T09:39:05.459Z,101816.00
2023-05-22T09:41:37.957Z,101808.00
2023-05-22T09:44:34.467Z,101801.00
2023-05-22T09:47:06.779Z,101795.00
2023-05-22T09:49:42.096Z,101778.00
2023-05-22T09:52:13.197Z,101782.00
2023-05-22T09:54:53.977Z,101780.00
2023-05-22T09:57:25.693Z,101786.00
2023-05-22T09:59:58.568Z,101781.00
2023-05-22T10:02:29.509Z,101777.00
2023-05-22T10:04:59.802Z,101782.00
2023-05-22T10:07:35.714Z,101784.00
2023-05-22T10:10:10.154Z,101778.00
2023-05-22T10:12:46.672Z,101775.00
2023-05-22T10:15:16.641Z,101765.00
2023-05-22T10:17:46.775Z,101765.00
2023-05-22T10:20:18.334Z,101758.00
2023-05-22T10:22:50.149Z,101756.00
2023-05-22T10:25:21.928Z,101758.00
2023-05-22T10:27:54.217Z,101755.00
2023-05-22T10:30:33.900Z,101753.00
2023-05-22T10:33:38.042Z,101752.00
2023-05-22T10:36:15.321Z,101750.00
2023-05-22T10:39:05.564Z,101749.00
2023-05-22T10:41:36.665Z,101746.00
2023-05-22T10:44:05.570Z,101750.00
2023-05-22T10:46:35.276Z,101757.00
2023-05-22T10:49:04.253Z,101747.00
2023-05-22T10:51:35.047Z,101749.00
2023-05-22T10:54:05.643Z,101745.00
2023-05-22T10:56:37.227Z,101736.00
2023-05-22T10:59:08.359Z,101731.00
2023-05-22T11:01:38.571Z,101731.00
2023-05-22T11:04:15.992Z,101733.00
2023-05-22T11:07:03.335Z,101728.00
2023-05-22T11:09:34.050Z,101734.00
2023-05-22T11:12:39.547Z,101730.00
2023-05-22T11:15:18.916Z,101707.00
2023-05-22T11:20:40.938Z,101696.00
2023-05-22T11:23:11.848Z,101697.00
2023-05-22T11:25:46.272Z,101695.00
2023-05-22T11:28:17.336Z,101701.00
2023-05-22T11:30:46.930Z,101694.00
2023-05-22T11:33:16.705Z,101693.00
2023-05-22T11:35:49.288Z,101684.00
2023-05-22T11:38:21.606Z,101682.00
2023-05-22T11:40:53.738Z,101680.00
2023-05-22T11:43:37.059Z,101682.00
2023-05-22T11:46:10.644Z,101683.00
2023-05-22T11:48:43.358Z,101677.00
2023-05-22T11:51:12.470Z,101668.00
2023-05-22T11:53:43.491Z,101685.00
2023-05-22T11:56:12.351Z,101675.00
2023-05-22T11:58:42.699Z,101700.00
2023-05-22T12:01:11.714Z,101698.00
2023-05-22T12:03:44.340Z,101681.00
2023-05-22T12:06:17.153Z,101674.00
2023-05-22T12:08:47.297Z,101674.00
2023-05-22T12:11:19.397Z,101681.00
2023-05-22T12:14:02.963Z,101682.00
2023-05-22T12:16:37.690Z,101689.00
2023-05-22T12:19:09.027Z,101683.00
2023-05-22T12:21:39.459Z,101698.00
2023-05-22T12:24:09.424Z,101690.00
2023-05-22T12:26:38.826Z,101690.00
2023-05-22T12:29:09.891Z,101703.00
2023-05-22T12:31:39.982Z,101713.00
2023-05-22T12:34:09.336Z,101661.00
2023-05-22T12:36:42.306Z,101721.00
2023-05-22T12:39:13.373Z,101730.00
2023-05-22T12:41:42.199Z,101732.00
2023-05-22T12:44:12.886Z,101731.00
2023-05-22T12:46:42.991Z,101755.00
2023-05-22T12:49:14.285Z,101787.00
2023-05-22T12:51:43.269Z,101804.00
2023-05-22T12:57:08.392Z,101804.00
2023-05-22T12:59:39.584Z,101805.00
2023-05-22T13:02:14.242Z,101796.00
2023-05-22T13:04:44.297Z,101795.00
2023-05-22T13:07:24.503Z,101789.00
2023-05-22T13:10:08.420Z,101784.00
2023-05-22T13:12:47.305Z,101776.00
2023-05-22T13:15:21.123Z,101787.00
2023-05-22T13:17:52.938Z,101784.00
2023-05-22T13:20:29.294Z,101785.00
2023-05-22T13:23:03.452Z,101777.00
2023-05-22T13:25:38.829Z,101765.00
2023-05-22T13:28:11.110Z,101764.00
2023-05-22T13:30:47.263Z,101742.00
2023-05-22T13:33:24.311Z,101736.00
2023-05-22T13:35:53.566Z,101729.00
2023-05-22T13:38:23.594Z,101727.00
2023-05-22T13:40:54.421Z,101720.00
2023-05-22T13:43:33.301Z,101710.00
2023-05-22T13:46:04.561Z,101698.00
2023-05-22T13:48:33.633Z,101685.00
2023-05-22T13:51:07.143Z,101690.00
2023-05-22T13:53:38.854Z,101685.00
2023-05-22T13:56:18.652Z,101684.00
2023-05-22T13:58:55.056Z,101679.00
2023-05-22T14:01:25.625Z,101674.00
2023-05-22T14:03:57.488Z,101676.00
2023-05-22T14:06:31.128Z,101676.00
2023-05-22T14:09:02.039Z,101671.00
2023-05-22T14:11:35.452Z,101666.00
2023-05-22T14:14:19.746Z,101662.00
2023-05-22T14:16:59.904Z,101672.00
2023-05-22T14:19:40.044Z,101670.00
2023-05-22T14:22:13.058Z,101677.00
2023-05-22T14:24:46.197Z,101669.00
2023-05-22T14:27:16.360Z,101673.00
2023-05-22T14:29:48.600Z,101681.00
2023-05-22T14:32:26.725Z,101679.00
2023-05-22T14:34:55.595Z,101673.00
2023-05-22T14:37:25.430Z,101672.00
2023-05-22T14:39:55.854Z,101667.00
2023-05-22T14:42:27.644Z,101675.00
2023-05-22T14:44:59.164Z,101665.00
2023-05-22T14:47:32.458Z,101660.00
2023-05-22T14:50:17.499Z,101660.00
2023-05-22T14:52:50.484Z,101660.00
2023-05-22T14:55:33.507Z,101661.00
2023-05-22T14:58:02.416Z,101669.00
2023-05-22T15:00:51.550Z,101662.00
2023-05-22T15:03:21.679Z,101670.00
2023-05-22T15:05:51.016Z,101663.00
2023-05-22T15:08:21.007Z,101670.00
2023-05-22T15:10:49.802Z,101672.00
2023-05-22T15:13:18.713Z,101668.00
2023-05-22T15:15:48.800Z,101670.00
2023-05-22T15:18:20.056Z,101681.00
2023-05-22T15:20:50.543Z,101683.00
2023-05-22T15:23:19.306Z,101681.00
2023-05-22T15:25:48.493Z,101670.00
2023-05-22T15:28:17.270Z,101665.00
2023-05-22T15:30:46.219Z,101668.00
2023-05-22T15:33:15.174Z,101663.00
2023-05-22T15:35:46.725Z,101662.00
2023-05-22T15:38:17.434Z,101661.00
2023-05-22T15:40:46.369Z,101663.00
2023-05-22T15:43:15.099Z,101662.00
2023-05-22T15:45:48.728Z,101654.00
2023-05-22T15:48:18.001Z,101649.00
2023-05-22T15:50:46.883Z,101644.00
2023-05-22T15:58:57.716Z,101653.00
2023-05-22T16:01:26.775Z,101643.00
2023-05-22T16:03:55.595Z,101640.00
2023-05-22T16:06:25.418Z,101637.00
2023-05-22T16:08:54.164Z,101633.00
2023-05-22T16:11:24.649Z,101637.00
2023-05-22T16:13:53.827Z,101630.00
2023-05-22T16:16:24.255Z,101635.00
2023-05-22T16:18:53.499Z,101630.00
2023-05-22T16:21:28.350Z,101627.00
2023-05-22T16:23:59.601Z,101638.00
2023-05-22T16:26:33.594Z,101634.00
2023-05-22T16:29:04.875Z,101637.00
2023-05-22T16:31:40.294Z,101636.00
2023-05-22T16:34:10.250Z,101636.00
2023-05-22T16:36:45.971Z,101635.00
2023-05-22T16:39:16.842Z,101629.00
2023-05-22T16:41:46.930Z,101629.00
2023-05-22T16:44:17.179Z,101630.00
2023-05-22T16:46:52.738Z,101630.00
2023-05-22T16:49:27.697Z,101630.00
2023-05-22T16:52:01.673Z,101618.00
2023-05-22T16:54:30.917Z,101613.00
2023-05-22T16:57:00.492Z,101618.00
2023-05-22T16:59:33.704Z,101621.00
2023-05-22T17:02:13.971Z,101622.00
2023-05-22T17:04:46.743Z,101630.00
2023-05-22T17:07:20.350Z,101630.00
2023-05-22T17:09:57.062Z,101628.00
2023-05-22T17:12:33.296Z,101631.00
2023-05-22T17:15:03.465Z,101631.00
2023-05-22T17:17:54.828Z,101636.00
2023-05-22T17:20:24.323Z,101630.00
2023-05-22T17:22:56.859Z,101628.00
2023-05-22T17:25:25.756Z,101634.00
2023-05-22T17:27:55.345Z,101638.00
2023-05-22T17:30:29.915Z,101638.00
2023-05-22T17:33:00.368Z,101639.00
2023-05-22T17:35:29.203Z,101642.00
2023-05-22T17:37:59.782Z,101637.00
2023-05-22T17:40:43.312Z,101645.00
2023-05-22T17:43:16.247Z,101636.00
2023-05-22T17:45:51.508Z,101639.00
2023-05-22T17:48:30.848Z,101636.00
2023-05-22T17:51:08.193Z,101635.00
2023-05-22T17:53:39.483Z,101629.00
2023-05-22T17:56:10.831Z,101636.00
2023-05-22T17:58:41.017Z,101640.00
2023-05-22T18:01:09.875Z,101649.00
2023-05-22T18:03:42.861Z,101675.00
2023-05-22T18:06:15.484Z,101672.00
2023-05-22T18:08:49.073Z,101689.00
2023-05-22T18:11:19.954Z,101683.00
2023-05-22T18:13:49.442Z,101676.00
2023-05-22T18:16:19.761Z,101668.00
2023-05-22T18:18:51.002Z,101663.00
2023-05-22T18:21:21.268Z,101652.00
2023-05-22T18:23:55.093Z,101649.00
2023-05-22T18:26:30.445Z,101638.00
2023-05-22T18:29:02.448Z,101635.00
2023-05-22T18:35:44.354Z,101625.00
2023-05-22T18:38:13.154Z,101631.00
2023-05-22T18:40:42.412Z,101623.00
2023-05-22T18:43:13.667Z,101617.00
2023-05-22T18:45:42.860Z,101614.00
2023-05-22T18:48:11.797Z,101619.00
2023-05-22T18:50:41.075Z,101613.00
2023-05-22T18:53:16.163Z,101609.00
2023-05-22T18:55:45.714Z,101613.00
2023-05-22T18:58:14.556Z,101613.00
2023-05-22T19:00:45.301Z,101609.00
2023-05-22T19:03:14.770Z,101613.00
2023-05-22T19:05:45.412Z,101612.00
2023-05-22T19:08:16.307Z,101603.00
2023-05-22T19:10:47.857Z,101598.00
2023-05-22T19:13:16.695Z,101601.00
2023-05-22T19:15:45.621Z,101593.00
2023-05-22T19:18:14.578Z,101591.00
2023-05-22T19:20:43.877Z,101594.00
2023-05-22T19:23:14.300Z,101597.00
2023-05-22T19:25:50.951Z,101594.00
2023-05-22T19:28:19.770Z,101593.00
2023-05-22T19:31:00.667Z,101597.00
2023-05-22T19:33:33.873Z,101597.00
2023-05-22T19:36:06.744Z,101600.00
2023-05-22T19:38:40.718Z,101596.00
2023-05-22T19:41:31.552Z,101592.00
2023-05-22T19:44:00.443Z,101595.00
2023-05-22T19:46:29.287Z,101593.00
2023-05-22T19:48:59.939Z,101602.00
2023-05-22T19:51:29.658Z,101607.00
2023-05-22T19:54:02.258Z,101608.00
2023-05-22T19:56:31.749Z,101619.00
2023-05-22T19:59:02.929Z,101617.00
2023-05-22T20:01:32.064Z,101608.00
2023-05-22T20:04:03.052Z,101606.00
2023-05-22T20:06:33.644Z,101607.00
2023-05-22T20:09:06.077Z,101601.00
2023-05-22T20:11:36.887Z,101605.00
2023-05-22T20:14:07.718Z,101607.00
2023-05-22T20:16:40.164Z,101607.00
2023-05-22T20:19:10.466Z,101605.00
2023-05-22T20:21:39.468Z,101597.00
2023-05-22T20:24:19.954Z,101602.00
2023-05-22T20:27:03.897Z,101605.00
2023-05-22T20:29:38.012Z,101612.00
2023-05-22T20:32:08.853Z,101605.00
2023-05-22T20:34:40.845Z,101606.00
2023-05-22T20:37:10.203Z,101600.00
2023-05-22T20:39:41.789Z,101599.00
2023-05-22T20:42:13.242Z,101593.00
2023-05-22T20:44:42.142Z,101594.00
2023-05-22T20:47:10.928Z,101602.00
2023-05-22T20:49:40.534Z,101597.00
2023-05-22T20:52:10.209Z,101596.00
2023-05-22T20:54:41.650Z,101602.00
2023-05-22T20:57:10.573Z,101600.00
2023-05-22T20:59:39.472Z,101607.00
2023-05-22T21:02:09.490Z,101603.00
2023-05-22T21:04:38.590Z,101606.00
2023-05-22T21:07:08.829Z,101600.00
2023-05-22T21:09:40.769Z,101599.00
2023-05-22T21:12:10.285Z,101595.00
2023-05-22T21:14:39.084Z,101599.00
2023-05-22T21:17:08.082Z,101590.00
2023-05-22T21:19:36.987Z,101600.00
2023-05-22T21:22:08.568Z,101586.00
2023-05-22T21:24:37.418Z,101588.00
2023-05-22T21:27:07.678Z,101588.00
2023-05-22T21:29:36.719Z,101592.00
2023-05-22T21:32:06.528Z,101585.00
2023-05-22T21:34:35.453Z,101589.00
2023-05-22T21:37:04.205Z,101593.00
2023-05-22T21:39:32.967Z,101590.00
2023-05-22T21:42:01.825Z,101591.00
2023-05-22T21:44:32.067Z,101587.00
2023-05-22T21:47:01.227Z,101589.00
2023-05-22T21:49:30.016Z,101587.00
2023-05-22T21:51:58.668Z,101580.00
2023-05-22T21:54:27.416Z,101579.00
2023-05-22T21:56:56.205Z,101583.00
2023-05-22T21:59:24.990Z,101581.00
2023-05-22T22:01:55.361Z,101582.00
2023-05-22T22:04:24.449Z,101573.00
2023-05-22T22:06:53.431Z,101577.00
2023-05-22T22:09:22.200Z,101577.00
2023-05-22T22:11:50.936Z,101574.00
2023-05-22T22:14:19.729Z,101572.00
2023-05-22T22:16:48.594Z,101571.00
2023-05-22T22:19:18.795Z,101571.00
2023-05-22T22:21:47.723Z,101570.00
2023-05-22T22:24:16.603Z,101566.00
2023-05-22T22:26:47.966Z,101569.00
2023-05-22T22:29:17.531Z,101564.00
2023-05-22T22:31:46.467Z,101566.00
2023-05-22T22:34:15.300Z,101559.00
2023-05-22T22:36:45.656Z,101561.00
2023-05-22T22:39:14.546Z,101562.00
2023-05-22T22:41:44.445Z,101553.00
2023-05-22T22:44:13.233Z,101557.00
2023-05-22T22:46:42.755Z,101555.00
2023-05-22T22:49:11.684Z,101551.00
2023-05-22T22:51:40.440Z,101540.00
2023-05-22T22:54:10.792Z,101541.00
2023-05-22T22:56:39.671Z,101543.00
2023-05-22T22:59:08.525Z,101538.00
2023-05-22T23:01:37.293Z,101538.00
2023-05-22T23:04:06.292Z,101539.00
2023-05-22T23:06:35.047Z,101539.00
2023-05-22T23:09:04.247Z,101529.00
2023-05-22T23:11:37.739Z,101533.00
2023-05-22T23:14:08.354Z,101534.00
2023-05-22T23:16:37.829Z,101527.00
2023-05-22T23:19:07.258Z,101523.00
2023-05-22T23:21:37.018Z,101527.00
2023-05-22T23:24:07.142Z,101526.00
2023-05-22T23:26:37.298Z,101528.00
2023-05-22T23:29:06.578Z,101526.00
2023-05-22T23:31:36.777Z,101525.00
2023-05-22T23:34:05.645Z,101519.00
2023-05-22T23:36:34.468Z,101518.00
2023-05-22T23:39:03.242Z,101526.00
2023-05-22T23:41:31.925Z,101512.00
2023-05-22T23:44:02.169Z,101512.00
2023-05-22T23:46:31.169Z,101518.00
2023-05-22T23:48:59.894Z,101518.00
2023-05-22T23:51:28.598Z,101503.00
2023-05-22T23:53:57.323Z,101508.00
2023-05-22T23:56:26.559Z,101509.00
2023-05-22T23:58:55.378Z,101509.00
